createdAt,value
2018-01-21T00:00:28.692Z,21.98
2018-01-21T00:01:28.694Z,22.06
2018-01-21T00:02:28.696Z,21.98
2018-01-21T00:03:28.698Z,21.91
2018-01-21T00:04:28.699Z,21.99
2018-01-21T00:05:28.701Z,21.96
2018-01-21T00:06:28.703Z,21.96
2018-01-21T00:07:28.706Z,21.98
2018-01-21T00:08:28.707Z,22.00
2018-01-21T00:09:28.709Z,21.94
2018-01-21T00:10:28.713Z,21.98
2018-01-21T00:11:28.713Z,21.90
2018-01-21T00:12:28.714Z,21.96
2018-01-21T00:13:28.720Z,22.00
2018-01-21T00:14:28.720Z,21.90
2018-01-21T00:15:28.720Z,21.94
2018-01-21T00:16:28.722Z,21.98
2018-01-21T00:17:28.725Z,21.94
2018-01-21T00:18:28.726Z,22.00
2018-01-21T00:19:28.728Z,21.94
2018-01-21T00:20:28.731Z,21.88
2018-01-21T00:21:28.732Z,21.96
2018-01-21T00:22:28.734Z,21.90
2018-01-21T00:23:28.736Z,21.98
2018-01-21T00:24:28.739Z,21.88
2018-01-21T00:25:28.740Z,21.92
2018-01-21T00:26:28.741Z,21.98
2018-01-21T00:27:28.745Z,21.92
2018-01-21T00:28:28.744Z,21.90
2018-01-21T00:29:28.747Z,21.91
2018-01-21T00:30:28.749Z,21.98
2018-01-21T00:31:28.755Z,21.94
2018-01-21T00:32:28.751Z,21.91
2018-01-21T00:33:28.753Z,21.90
2018-01-21T00:34:28.759Z,21.90
2018-01-21T00:35:28.758Z,21.91
2018-01-21T00:36:28.760Z,21.91
2018-01-21T00:37:28.760Z,21.92
2018-01-21T00:38:28.763Z,21.96
2018-01-21T00:39:28.763Z,21.96
2018-01-21T00:40:28.766Z,22.00
2018-01-21T00:41:28.776Z,21.86
2018-01-21T00:42:28.770Z,21.88
2018-01-21T00:43:28.773Z,21.90
2018-01-21T00:44:28.774Z,21.90
2018-01-21T00:45:28.776Z,21.88
2018-01-21T00:46:28.777Z,21.88
2018-01-21T00:47:28.779Z,21.86
2018-01-21T00:48:28.780Z,21.91
2018-01-21T00:49:28.783Z,21.92
2018-01-21T00:50:28.785Z,21.94
2018-01-21T00:51:28.787Z,21.91
2018-01-21T00:52:28.788Z,21.90
2018-01-21T00:53:28.791Z,21.86
2018-01-21T00:54:28.792Z,21.84
2018-01-21T00:55:28.796Z,21.86
2018-01-21T00:56:28.795Z,21.94
2018-01-21T00:57:28.796Z,21.83
2018-01-21T00:58:28.800Z,21.88
2018-01-21T00:59:28.800Z,21.86
2018-01-21T01:00:28.804Z,21.99
2018-01-21T01:01:28.804Z,21.88
2018-01-21T01:02:28.806Z,21.91
2018-01-21T01:03:28.808Z,21.86
2018-01-21T01:04:28.809Z,21.83
2018-01-21T01:05:28.811Z,21.88
2018-01-21T01:06:28.813Z,21.98
2018-01-21T01:07:28.815Z,21.91
2018-01-21T01:08:28.817Z,21.96
2018-01-21T01:09:28.820Z,21.92
2018-01-21T01:10:28.821Z,21.92
2018-01-21T01:11:28.822Z,21.88
2018-01-21T01:12:28.823Z,21.91
2018-01-21T01:13:28.826Z,21.83
2018-01-21T01:14:28.827Z,21.88
2018-01-21T01:15:28.830Z,21.90
2018-01-21T01:16:28.830Z,21.90
2018-01-21T01:17:28.832Z,21.86
2018-01-21T01:18:28.834Z,21.90
2018-01-21T01:19:28.837Z,21.86
2018-01-21T01:20:28.836Z,21.90
2018-01-21T01:21:28.839Z,21.96
2018-01-21T01:22:28.841Z,21.90
2018-01-21T01:23:28.845Z,21.96
2018-01-21T01:24:28.844Z,21.98
2018-01-21T01:25:28.847Z,21.88
2018-01-21T01:26:28.848Z,21.83
2018-01-21T01:27:28.850Z,21.86
2018-01-21T01:28:28.851Z,21.91
2018-01-21T01:29:28.853Z,21.82
2018-01-21T01:30:28.855Z,21.83
2018-01-21T01:31:28.858Z,21.86
2018-01-21T01:32:28.858Z,21.92
2018-01-21T01:33:28.859Z,21.90
2018-01-21T01:34:28.862Z,21.88
2018-01-21T01:35:28.864Z,21.86
2018-01-21T01:36:28.865Z,21.86
2018-01-21T01:37:28.867Z,21.90
2018-01-21T01:38:28.869Z,21.90
2018-01-21T01:39:28.871Z,21.92
2018-01-21T01:40:28.872Z,21.91
2018-01-21T01:41:28.874Z,21.83
2018-01-21T01:42:28.876Z,21.88
2018-01-21T01:43:28.878Z,21.91
2018-01-21T01:44:28.878Z,21.90
2018-01-21T01:45:28.880Z,21.90
2018-01-21T01:46:28.882Z,21.91
2018-01-21T01:47:28.884Z,21.82
2018-01-21T01:48:28.886Z,21.86
2018-01-21T01:49:28.888Z,21.92
2018-01-21T01:50:28.890Z,21.84
2018-01-21T01:51:28.891Z,21.83
2018-01-21T01:52:28.893Z,21.84
2018-01-21T01:53:28.896Z,21.88
2018-01-21T01:54:28.897Z,21.84
2018-01-21T01:55:28.901Z,21.91
2018-01-21T01:56:28.899Z,21.91
2018-01-21T01:57:28.901Z,21.86
2018-01-21T01:58:28.903Z,21.84
2018-01-21T01:59:28.905Z,21.84
2018-01-21T02:00:28.907Z,21.91
2018-01-21T02:01:28.908Z,21.82
2018-01-21T02:02:28.912Z,21.84
2018-01-21T02:03:28.912Z,21.86
2018-01-21T02:04:28.913Z,21.83
2018-01-21T02:05:28.922Z,21.86
2018-01-21T02:06:28.924Z,21.90
2018-01-21T02:07:28.921Z,21.90
2018-01-21T02:08:28.922Z,21.88
2018-01-21T02:09:28.923Z,21.91
2018-01-21T02:10:28.924Z,21.83
2018-01-21T02:11:28.926Z,21.84
2018-01-21T02:12:28.926Z,21.88
2018-01-21T02:13:28.927Z,21.86
2018-01-21T02:14:28.929Z,21.84
2018-01-21T02:15:28.931Z,21.91
2018-01-21T02:16:28.932Z,21.84
2018-01-21T02:17:28.934Z,21.84
2018-01-21T02:18:28.937Z,21.92
2018-01-21T02:19:28.937Z,21.84
2018-01-21T02:20:28.940Z,21.84
2018-01-21T02:21:28.943Z,21.80
2018-01-21T02:22:28.942Z,21.88
2018-01-21T02:23:28.946Z,21.91
2018-01-21T02:24:28.945Z,21.84
2018-01-21T02:25:28.949Z,21.82
2018-01-21T02:26:28.951Z,21.86
2018-01-21T02:27:28.952Z,21.82
2018-01-21T02:28:28.952Z,21.82
2018-01-21T02:29:28.954Z,21.83
2018-01-21T02:30:28.956Z,21.91
2018-01-21T02:31:28.959Z,21.82
2018-01-21T02:32:28.960Z,21.83
2018-01-21T02:33:28.961Z,21.80
2018-01-21T02:34:28.962Z,21.83
2018-01-21T02:35:28.965Z,21.84
2018-01-21T02:36:28.967Z,21.86
2018-01-21T02:37:28.970Z,21.86
2018-01-21T02:38:28.971Z,21.80
2018-01-21T02:39:28.978Z,21.88
2018-01-21T02:40:28.977Z,21.82
2018-01-21T02:41:28.978Z,21.82
2018-01-21T02:42:28.979Z,21.91
2018-01-21T02:43:28.980Z,21.83
2018-01-21T02:44:28.983Z,21.80
2018-01-21T02:45:28.982Z,21.83
2018-01-21T02:46:28.984Z,21.82
2018-01-21T02:47:28.996Z,21.82
2018-01-21T02:48:28.986Z,21.80
2018-01-21T02:49:28.997Z,21.82
2018-01-21T02:50:29.002Z,21.77
2018-01-21T02:51:29.007Z,21.82
2018-01-21T02:52:29.001Z,21.75
2018-01-21T02:53:29.003Z,21.82
2018-01-21T02:54:29.000Z,21.74
2018-01-21T02:55:29.001Z,21.79
2018-01-21T02:56:29.001Z,21.80
2018-01-21T02:57:29.004Z,21.82
2018-01-21T02:58:29.004Z,21.80
2018-01-21T02:59:29.005Z,21.79
2018-01-21T03:00:29.016Z,21.77
2018-01-21T03:01:29.016Z,21.88
2018-01-21T03:02:29.016Z,21.82
2018-01-21T03:03:29.017Z,21.75
2018-01-21T03:04:29.018Z,21.80
2018-01-21T03:05:29.018Z,21.79
2018-01-21T03:06:29.020Z,21.82
2018-01-21T03:07:29.020Z,21.77
2018-01-21T03:08:29.020Z,21.77
2018-01-21T03:09:29.022Z,21.80
2018-01-21T03:10:29.022Z,21.79
2018-01-21T03:11:29.025Z,21.79
2018-01-21T03:12:29.026Z,21.75
2018-01-21T03:13:29.027Z,21.80
2018-01-21T03:14:29.029Z,21.79
2018-01-21T03:15:29.031Z,21.77
2018-01-21T03:16:29.033Z,21.79
2018-01-21T03:17:29.033Z,21.72
2018-01-21T03:18:29.060Z,21.72
2018-01-21T03:19:29.039Z,21.80
2018-01-21T03:20:29.040Z,21.72
2018-01-21T03:21:29.040Z,21.75
2018-01-21T03:22:29.042Z,21.71
2018-01-21T03:23:29.044Z,21.75
2018-01-21T03:24:29.045Z,21.74
2018-01-21T03:25:29.047Z,21.77
2018-01-21T03:26:29.048Z,21.74
2018-01-21T03:27:29.052Z,21.72
2018-01-21T03:28:29.052Z,21.75
2018-01-21T03:29:29.051Z,21.75
2018-01-21T03:30:29.055Z,21.75
2018-01-21T03:31:29.058Z,21.77
2018-01-21T03:32:29.057Z,21.74
2018-01-21T03:33:29.059Z,21.75
2018-01-21T03:34:29.061Z,21.74
2018-01-21T03:35:29.063Z,21.79
2018-01-21T03:36:29.064Z,21.77
2018-01-21T03:37:29.065Z,21.83
2018-01-21T03:38:29.068Z,21.79
2018-01-21T03:39:29.070Z,21.72
2018-01-21T03:40:29.086Z,21.72
2018-01-21T03:41:29.074Z,21.79
2018-01-21T03:42:29.075Z,21.67
2018-01-21T03:43:29.076Z,21.77
2018-01-21T03:44:29.076Z,21.77
2018-01-21T03:45:29.080Z,21.69
2018-01-21T03:46:29.080Z,21.65
2018-01-21T03:47:29.082Z,21.79
2018-01-21T03:48:29.084Z,21.65
2018-01-21T03:49:29.085Z,21.62
2018-01-21T03:50:29.095Z,21.77
2018-01-21T03:51:29.097Z,21.79
2018-01-21T03:52:29.097Z,21.83
2018-01-21T03:53:29.098Z,21.67
2018-01-21T03:54:29.096Z,21.68
2018-01-21T03:55:29.134Z,21.67
2018-01-21T03:56:29.099Z,21.68
2018-01-21T03:57:29.098Z,21.74
2018-01-21T03:58:29.101Z,21.80
2018-01-21T03:59:29.103Z,21.62
2018-01-21T04:00:29.102Z,21.79
2018-01-21T04:01:29.104Z,21.67
2018-01-21T04:02:29.105Z,21.69
2018-01-21T04:03:29.107Z,21.71
2018-01-21T04:04:29.107Z,21.62
2018-01-21T04:05:29.108Z,21.65
2018-01-21T04:06:29.111Z,21.65
2018-01-21T04:07:29.113Z,21.62
2018-01-21T04:08:29.113Z,21.67
2018-01-21T04:09:29.117Z,21.80
2018-01-21T04:10:29.117Z,21.67
2018-01-21T04:11:29.119Z,21.79
2018-01-21T04:12:29.120Z,21.72
2018-01-21T04:13:29.122Z,21.74
2018-01-21T04:14:29.127Z,21.74
2018-01-21T04:15:29.126Z,21.77
2018-01-21T04:16:29.127Z,21.82
2018-01-21T04:17:29.129Z,21.75
2018-01-21T04:18:29.130Z,21.79
2018-01-21T04:19:29.133Z,21.72
2018-01-21T04:20:29.134Z,21.79
2018-01-21T04:21:29.136Z,21.71
2018-01-21T04:22:29.136Z,21.75
2018-01-21T04:23:29.140Z,21.79
2018-01-21T04:24:29.141Z,21.65
2018-01-21T04:25:29.142Z,21.75
2018-01-21T04:26:29.144Z,21.65
2018-01-21T04:27:29.147Z,21.65
2018-01-21T04:28:29.145Z,21.69
2018-01-21T04:29:29.149Z,21.68
2018-01-21T04:30:29.152Z,21.64
2018-01-21T04:31:29.153Z,21.59
2018-01-21T04:32:29.154Z,21.61
2018-01-21T04:33:29.155Z,21.61
2018-01-21T04:34:29.158Z,21.61
2018-01-21T04:35:29.162Z,21.61
2018-01-21T04:36:29.163Z,21.65
2018-01-21T04:37:29.162Z,21.65
2018-01-21T04:38:29.164Z,21.62
2018-01-21T04:39:29.166Z,21.59
2018-01-21T04:40:29.167Z,21.59
2018-01-21T04:41:29.169Z,21.56
2018-01-21T04:42:29.170Z,21.67
2018-01-21T04:43:29.172Z,21.62
2018-01-21T04:44:29.173Z,21.67
2018-01-21T04:45:29.176Z,21.67
2018-01-21T04:46:29.178Z,21.61
2018-01-21T04:47:29.179Z,21.65
2018-01-21T04:48:29.179Z,21.62
2018-01-21T04:49:29.181Z,21.67
2018-01-21T04:50:29.184Z,21.65
2018-01-21T04:51:29.185Z,21.62
2018-01-21T04:52:29.186Z,21.59
2018-01-21T04:53:29.193Z,21.64
2018-01-21T04:54:29.196Z,21.62
2018-01-21T04:55:29.192Z,21.67
2018-01-21T04:56:29.193Z,21.59
2018-01-21T04:57:29.195Z,21.61
2018-01-21T04:58:29.197Z,21.58
2018-01-21T04:59:29.211Z,21.61
2018-01-21T05:00:29.208Z,21.64
2018-01-21T05:01:29.209Z,21.61
2018-01-21T05:02:29.211Z,21.61
2018-01-21T05:03:29.211Z,21.62
2018-01-21T05:04:29.213Z,21.65
2018-01-21T05:05:29.213Z,21.67
2018-01-21T05:06:29.214Z,21.62
2018-01-21T05:07:29.211Z,21.65
2018-01-21T05:08:29.212Z,21.67
2018-01-21T05:09:29.213Z,21.65
2018-01-21T05:10:29.216Z,21.64
2018-01-21T05:11:29.216Z,21.68
2018-01-21T05:12:29.218Z,21.67
2018-01-21T05:13:29.220Z,21.59
2018-01-21T05:14:29.223Z,21.65
2018-01-21T05:15:29.229Z,21.65
2018-01-21T05:16:29.224Z,21.71
2018-01-21T05:17:29.229Z,21.65
2018-01-21T05:18:29.228Z,21.65
2018-01-21T05:19:29.230Z,21.65
2018-01-21T05:20:29.235Z,21.69
2018-01-21T05:21:29.239Z,21.62
2018-01-21T05:22:29.235Z,21.72
2018-01-21T05:23:29.238Z,21.72
2018-01-21T05:24:29.239Z,21.62
2018-01-21T05:25:29.240Z,21.65
2018-01-21T05:26:29.243Z,21.67
2018-01-21T05:27:29.243Z,21.69
2018-01-21T05:28:29.244Z,21.65
2018-01-21T05:29:29.247Z,21.64
2018-01-21T05:30:29.249Z,21.62
2018-01-21T05:31:29.249Z,21.67
2018-01-21T05:32:29.250Z,21.67
2018-01-21T05:33:29.285Z,21.68
2018-01-21T05:34:29.255Z,21.67
2018-01-21T05:35:29.256Z,21.77
2018-01-21T05:36:29.257Z,21.82
2018-01-21T05:37:29.259Z,21.71
2018-01-21T05:38:29.260Z,21.72
2018-01-21T05:39:29.266Z,21.72
2018-01-21T05:40:29.266Z,21.75
2018-01-21T05:41:29.266Z,21.71
2018-01-21T05:42:29.268Z,21.75
2018-01-21T05:43:29.269Z,21.75
2018-01-21T05:44:29.270Z,21.74
2018-01-21T05:45:29.272Z,21.79
2018-01-21T05:46:29.274Z,21.77
2018-01-21T05:47:29.275Z,21.74
2018-01-21T05:48:29.277Z,21.74
2018-01-21T05:49:29.279Z,21.74
2018-01-21T05:50:29.283Z,21.80
2018-01-21T05:51:29.283Z,21.77
2018-01-21T05:52:29.284Z,21.79
2018-01-21T05:53:29.286Z,21.77
2018-01-21T05:54:29.288Z,21.77
2018-01-21T05:55:29.300Z,21.79
2018-01-21T05:56:29.291Z,21.74
2018-01-21T05:57:29.305Z,21.80
2018-01-21T05:58:29.306Z,21.80
2018-01-21T05:59:29.308Z,21.77
2018-01-21T06:00:29.306Z,21.79
2018-01-21T06:01:29.306Z,21.72
2018-01-21T06:02:29.308Z,21.77
2018-01-21T06:03:29.308Z,21.77
2018-01-21T06:04:29.312Z,21.77
2018-01-21T06:05:29.311Z,21.77
2018-01-21T06:06:29.312Z,21.79
2018-01-21T06:07:29.311Z,21.82
2018-01-21T06:08:29.314Z,21.79
2018-01-21T06:09:29.314Z,21.77
2018-01-21T06:10:29.317Z,21.83
2018-01-21T06:11:29.320Z,21.83
2018-01-21T06:12:29.320Z,21.80
2018-01-21T06:13:29.322Z,21.77
2018-01-21T06:14:29.323Z,21.86
2018-01-21T06:15:29.325Z,21.80
2018-01-21T06:16:29.326Z,21.79
2018-01-21T06:17:29.328Z,21.82
2018-01-21T06:18:29.331Z,21.80
2018-01-21T06:19:29.332Z,21.80
2018-01-21T06:20:29.333Z,21.80
2018-01-21T06:21:29.335Z,21.82
2018-01-21T06:22:29.337Z,21.83
2018-01-21T06:23:29.340Z,21.83
2018-01-21T06:24:29.340Z,21.80
2018-01-21T06:25:29.341Z,21.84
2018-01-21T06:26:29.347Z,21.90
2018-01-21T06:27:29.346Z,21.84
2018-01-21T06:28:29.347Z,21.79
2018-01-21T06:29:29.351Z,21.82
2018-01-21T06:30:29.352Z,21.88
2018-01-21T06:31:29.354Z,21.82
2018-01-21T06:32:29.355Z,21.82
2018-01-21T06:33:29.358Z,21.84
2018-01-21T06:34:29.359Z,21.91
2018-01-21T06:35:29.361Z,21.83
2018-01-21T06:36:29.374Z,21.88
2018-01-21T06:37:29.365Z,21.84
2018-01-21T06:38:29.366Z,21.91
2018-01-21T06:39:29.368Z,21.79
2018-01-21T06:40:29.370Z,21.82
2018-01-21T06:41:29.370Z,21.82
2018-01-21T06:42:29.373Z,21.83
2018-01-21T06:43:29.375Z,21.83
2018-01-21T06:44:29.378Z,21.91
2018-01-21T06:45:29.378Z,21.82
2018-01-21T06:46:29.380Z,21.82
2018-01-21T06:47:29.382Z,21.84
2018-01-21T06:48:29.382Z,21.83
2018-01-21T06:49:29.385Z,21.80
2018-01-21T06:50:29.387Z,21.91
2018-01-21T06:51:29.390Z,21.79
2018-01-21T06:52:29.390Z,21.88
2018-01-21T06:53:29.393Z,21.91
2018-01-21T06:54:29.394Z,21.84
2018-01-21T06:55:29.396Z,21.83
2018-01-21T06:56:29.397Z,21.88
2018-01-21T06:57:29.399Z,21.83
2018-01-21T06:58:29.401Z,21.86
2018-01-21T06:59:29.403Z,21.91
2018-01-21T07:00:29.404Z,21.94
2018-01-21T07:01:29.407Z,21.88
2018-01-21T07:02:29.409Z,21.86
2018-01-21T07:03:29.410Z,21.88
2018-01-21T07:04:29.410Z,21.96
2018-01-21T07:05:29.413Z,21.86
2018-01-21T07:06:29.415Z,21.92
2018-01-21T07:07:29.417Z,21.82
2018-01-21T07:08:29.422Z,21.91
2018-01-21T07:09:29.421Z,21.90
2018-01-21T07:10:29.423Z,21.94
2018-01-21T07:11:29.425Z,21.92
2018-01-21T07:12:29.426Z,21.84
2018-01-21T07:13:29.428Z,21.94
2018-01-21T07:14:29.430Z,21.91
2018-01-21T07:15:29.432Z,21.91
2018-01-21T07:16:29.433Z,21.91
2018-01-21T07:17:29.435Z,22.02
2018-01-21T07:18:29.437Z,21.90
2018-01-21T07:19:29.441Z,21.96
2018-01-21T07:20:29.440Z,21.91
2018-01-21T07:21:29.442Z,21.92
2018-01-21T07:22:29.444Z,21.90
2018-01-21T07:23:29.449Z,21.90
2018-01-21T07:24:29.447Z,21.94
2018-01-21T07:25:29.449Z,21.98
2018-01-21T07:26:29.452Z,21.96
2018-01-21T07:27:29.455Z,21.92
2018-01-21T07:28:29.454Z,21.90
2018-01-21T07:29:29.457Z,21.92
2018-01-21T07:30:29.459Z,21.94
2018-01-21T07:31:29.461Z,21.96
2018-01-21T07:32:29.463Z,21.88
2018-01-21T07:33:29.464Z,21.88
2018-01-21T07:34:29.466Z,21.91
2018-01-21T07:35:29.468Z,21.91
2018-01-21T07:36:29.470Z,21.91
2018-01-21T07:37:29.471Z,21.91
2018-01-21T07:38:29.474Z,21.94
2018-01-21T07:39:29.476Z,21.92
2018-01-21T07:40:29.477Z,21.86
2018-01-21T07:41:29.479Z,21.98
2018-01-21T07:42:29.482Z,21.99
2018-01-21T07:43:29.483Z,21.92
2018-01-21T07:44:29.487Z,21.91
2018-01-21T07:45:29.486Z,21.90
2018-01-21T07:46:29.489Z,21.88
2018-01-21T07:47:29.490Z,21.96
2018-01-21T07:48:29.491Z,21.96
2018-01-21T07:49:29.493Z,21.91
2018-01-21T07:50:29.496Z,21.88
2018-01-21T07:51:29.497Z,21.91
2018-01-21T07:52:29.498Z,21.88
2018-01-21T07:53:29.501Z,21.86
2018-01-21T07:54:29.505Z,21.83
2018-01-21T07:55:29.526Z,21.91
2018-01-21T07:56:29.506Z,21.91
2018-01-21T07:57:29.508Z,21.91
2018-01-21T07:58:29.511Z,21.84
2018-01-21T07:59:29.513Z,21.96
2018-01-21T08:00:29.514Z,21.94
2018-01-21T08:01:29.516Z,21.90
2018-01-21T08:02:29.517Z,21.96
2018-01-21T08:03:29.519Z,21.90
2018-01-21T08:04:29.521Z,21.91
2018-01-21T08:05:29.522Z,21.91
2018-01-21T08:06:29.525Z,22.00
2018-01-21T08:07:29.527Z,21.88
2018-01-21T08:08:29.528Z,21.84
2018-01-21T08:09:29.531Z,22.03
2018-01-21T08:10:29.533Z,21.88
2018-01-21T08:11:29.534Z,21.88
2018-01-21T08:12:29.535Z,21.96
2018-01-21T08:13:29.538Z,21.88
2018-01-21T08:14:29.541Z,21.86
2018-01-21T08:15:29.542Z,21.92
2018-01-21T08:16:29.542Z,21.90
2018-01-21T08:17:29.545Z,21.90
2018-01-21T08:18:29.546Z,21.90
2018-01-21T08:19:29.548Z,21.98
2018-01-21T08:20:29.549Z,21.96
2018-01-21T08:21:29.551Z,21.96
2018-01-21T08:22:29.554Z,21.88
2018-01-21T08:23:29.555Z,22.02
2018-01-21T08:24:29.558Z,21.94
2018-01-21T08:25:29.559Z,21.94
2018-01-21T08:26:29.562Z,21.91
2018-01-21T08:27:29.563Z,21.91
2018-01-21T08:28:29.564Z,21.96
2018-01-21T08:29:29.570Z,22.02
2018-01-21T08:30:29.567Z,22.00
2018-01-21T08:31:29.572Z,22.06
2018-01-21T08:32:29.573Z,21.94
2018-01-21T08:33:29.574Z,22.03
2018-01-21T08:34:29.581Z,21.92
2018-01-21T08:35:29.576Z,21.98
2018-01-21T08:36:29.579Z,22.00
2018-01-21T08:37:29.581Z,21.96
2018-01-21T08:38:29.583Z,22.02
2018-01-21T08:39:29.588Z,21.99
2018-01-21T08:40:29.586Z,22.00
2018-01-21T08:41:29.589Z,21.94
2018-01-21T08:42:29.593Z,22.06
2018-01-21T08:43:29.593Z,21.91
2018-01-21T08:44:29.593Z,21.96
2018-01-21T08:45:29.595Z,21.91
2018-01-21T08:46:29.601Z,21.96
2018-01-21T08:47:29.601Z,21.99
2018-01-21T08:48:29.600Z,21.99
2018-01-21T08:49:29.604Z,22.06
2018-01-21T08:50:29.605Z,22.06
2018-01-21T08:51:29.607Z,22.03
2018-01-21T08:52:29.614Z,22.00
2018-01-21T08:53:29.610Z,22.00
2018-01-21T08:54:29.612Z,22.02
2018-01-21T08:55:29.615Z,22.06
2018-01-21T08:56:29.619Z,22.05
2018-01-21T08:57:29.622Z,22.09
2018-01-21T08:58:29.620Z,22.06
2018-01-21T08:59:29.622Z,22.02
2018-01-21T09:00:29.623Z,22.05
2018-01-21T09:01:29.625Z,22.03
2018-01-21T09:02:29.631Z,21.96
2018-01-21T09:03:29.626Z,22.06
2018-01-21T09:04:29.633Z,22.00
2018-01-21T09:05:29.632Z,22.00
2018-01-21T09:06:29.635Z,22.06
2018-01-21T09:07:29.641Z,21.94
2018-01-21T09:08:29.642Z,22.10
2018-01-21T09:09:29.643Z,22.05
2018-01-21T09:10:29.641Z,22.02
2018-01-21T09:11:29.646Z,21.98
2018-01-21T09:12:29.646Z,21.98
2018-01-21T09:13:29.650Z,22.03
2018-01-21T09:14:29.649Z,21.91
2018-01-21T09:15:29.652Z,22.06
2018-01-21T09:16:29.656Z,22.05
2018-01-21T09:17:29.656Z,22.00
2018-01-21T09:18:29.656Z,22.03
2018-01-21T09:19:29.659Z,22.05
2018-01-21T09:20:29.660Z,22.06
2018-01-21T09:21:29.661Z,22.05
2018-01-21T09:22:29.664Z,22.02
2018-01-21T09:23:29.666Z,22.02
2018-01-21T09:24:29.669Z,22.07
2018-01-21T09:25:29.669Z,22.09
2018-01-21T09:26:29.671Z,22.06
2018-01-21T09:27:29.673Z,21.99
2018-01-21T09:28:29.675Z,22.06
2018-01-21T09:29:29.677Z,22.03
2018-01-21T09:30:29.679Z,22.07
2018-01-21T09:31:29.680Z,22.07
2018-01-21T09:32:29.692Z,22.09
2018-01-21T09:33:29.683Z,22.06
2018-01-21T09:34:29.687Z,22.17
2018-01-21T09:35:29.689Z,21.99
2018-01-21T09:36:29.691Z,22.09
2018-01-21T09:37:29.693Z,22.09
2018-01-21T09:38:29.696Z,22.06
2018-01-21T09:39:29.700Z,22.14
2018-01-21T09:40:29.698Z,22.07
2018-01-21T09:41:29.700Z,22.03
2018-01-21T09:42:29.702Z,22.07
2018-01-21T09:43:29.704Z,22.06
2018-01-21T09:44:29.707Z,22.10
2018-01-21T09:45:29.708Z,22.05
2018-01-21T09:46:29.711Z,22.09
2018-01-21T09:47:29.716Z,22.03
2018-01-21T09:48:29.713Z,22.02
2018-01-21T09:49:29.716Z,22.12
2018-01-21T09:50:29.719Z,22.06
2018-01-21T09:51:29.720Z,22.09
2018-01-21T09:52:29.722Z,22.07
2018-01-21T09:53:29.723Z,22.05
2018-01-21T09:54:29.732Z,21.99
2018-01-21T09:55:29.732Z,22.07
2018-01-21T09:56:29.733Z,22.14
2018-01-21T09:57:29.734Z,22.02
2018-01-21T09:58:29.735Z,22.15
2018-01-21T09:59:29.740Z,22.07
2018-01-21T10:00:29.741Z,22.18
2018-01-21T10:01:29.740Z,22.15
2018-01-21T10:02:29.740Z,22.02
2018-01-21T10:03:29.742Z,22.14
2018-01-21T10:04:29.743Z,22.15
2018-01-21T10:05:29.746Z,22.02
2018-01-21T10:06:29.748Z,22.10
2018-01-21T10:07:29.750Z,22.14
2018-01-21T10:08:29.751Z,22.05
2018-01-21T10:09:29.754Z,22.06
2018-01-21T10:10:29.756Z,22.15
2018-01-21T10:11:29.758Z,22.14
2018-01-21T10:12:29.759Z,22.17
2018-01-21T10:13:29.761Z,22.03
2018-01-21T10:14:29.765Z,22.07
2018-01-21T10:15:29.766Z,22.03
2018-01-21T10:16:29.767Z,22.10
2018-01-21T10:17:29.769Z,22.06
2018-01-21T10:18:29.771Z,22.03
2018-01-21T10:19:29.772Z,22.14
2018-01-21T10:20:29.775Z,22.21
2018-01-21T10:21:29.777Z,22.09
2018-01-21T10:22:29.779Z,22.05
2018-01-21T10:23:29.781Z,22.03
2018-01-21T10:24:29.782Z,22.12
2018-01-21T10:25:29.785Z,22.15
2018-01-21T10:26:29.790Z,22.10
2018-01-21T10:27:29.789Z,22.06
2018-01-21T10:28:29.790Z,22.20
2018-01-21T10:29:29.793Z,22.12
2018-01-21T10:30:29.795Z,22.18
2018-01-21T10:31:29.797Z,22.18
2018-01-21T10:32:29.798Z,22.15
2018-01-21T10:33:29.801Z,22.12
2018-01-21T10:34:29.802Z,22.15
2018-01-21T10:35:29.805Z,22.18
2018-01-21T10:36:29.806Z,22.03
2018-01-21T10:37:29.806Z,22.17
2018-01-21T10:38:29.811Z,22.18
2018-01-21T10:39:29.813Z,22.18
2018-01-21T10:40:29.814Z,22.15
2018-01-21T10:41:29.816Z,22.20
2018-01-21T10:42:29.818Z,22.14
2018-01-21T10:43:29.820Z,22.14
2018-01-21T10:44:29.822Z,22.18
2018-01-21T10:45:29.823Z,22.21
2018-01-21T10:46:29.827Z,22.12
2018-01-21T10:47:29.828Z,22.20
2018-01-21T10:48:29.830Z,22.12
2018-01-21T10:49:29.832Z,22.15
2018-01-21T10:50:29.834Z,22.17
2018-01-21T10:51:29.838Z,22.14
2018-01-21T10:52:29.837Z,22.18
2018-01-21T10:53:29.840Z,22.15
2018-01-21T10:54:29.841Z,22.21
2018-01-21T10:55:29.844Z,22.18
2018-01-21T10:56:29.845Z,22.21
2018-01-21T10:57:29.847Z,22.15
2018-01-21T10:58:29.849Z,22.17
2018-01-21T10:59:29.852Z,22.09
2018-01-21T11:00:29.853Z,22.15
2018-01-21T11:01:29.861Z,22.20
2018-01-21T11:02:29.857Z,22.18
2018-01-21T11:03:29.859Z,22.17
2018-01-21T11:04:29.861Z,22.21
2018-01-21T11:05:29.863Z,22.10
2018-01-21T11:06:29.865Z,22.14
2018-01-21T11:07:29.868Z,22.20
2018-01-21T11:08:29.869Z,22.21
2018-01-21T11:09:29.872Z,22.18
2018-01-21T11:10:29.873Z,22.15
2018-01-21T11:11:29.875Z,22.17
2018-01-21T11:12:29.876Z,22.09
2018-01-21T11:13:29.879Z,22.17
2018-01-21T11:14:29.886Z,22.09
2018-01-21T11:15:29.885Z,22.09
2018-01-21T11:16:29.885Z,22.14
2018-01-21T11:17:29.890Z,22.15
2018-01-21T11:18:29.893Z,22.09
2018-01-21T11:19:29.892Z,22.17
2018-01-21T11:20:29.893Z,22.15
2018-01-21T11:21:29.895Z,22.21
2018-01-21T11:22:29.897Z,22.17
2018-01-21T11:23:29.900Z,22.21
2018-01-21T11:24:29.901Z,22.17
2018-01-21T11:25:29.903Z,22.21
2018-01-21T11:26:29.906Z,22.18
2018-01-21T11:27:29.912Z,22.20
2018-01-21T11:28:29.909Z,22.25
2018-01-21T11:29:29.913Z,22.15
2018-01-21T11:30:29.915Z,22.25
2018-01-21T11:31:29.917Z,22.20
2018-01-21T11:32:29.920Z,22.18
2018-01-21T11:33:29.919Z,22.17
2018-01-21T11:34:29.923Z,22.14
2018-01-21T11:35:29.924Z,22.14
2018-01-21T11:36:29.935Z,22.09
2018-01-21T11:37:29.927Z,22.10
2018-01-21T11:38:29.929Z,22.21
2018-01-21T11:39:29.931Z,22.09
2018-01-21T11:40:29.933Z,22.14
2018-01-21T11:41:29.936Z,22.07
2018-01-21T11:42:29.936Z,22.15
2018-01-21T11:43:29.940Z,22.12
2018-01-21T11:44:29.942Z,22.10
2018-01-21T11:45:29.942Z,22.17
2018-01-21T11:46:29.945Z,22.24
2018-01-21T11:47:29.948Z,22.21
2018-01-21T11:48:29.949Z,22.15
2018-01-21T11:49:29.951Z,22.17
2018-01-21T11:50:29.979Z,22.10
2018-01-21T11:51:29.955Z,22.10
2018-01-21T11:52:29.956Z,22.15
2018-01-21T11:53:29.959Z,22.14
2018-01-21T11:54:29.967Z,22.12
2018-01-21T11:55:29.963Z,22.20
2018-01-21T11:56:29.969Z,22.14
2018-01-21T11:57:30.027Z,22.30
2018-01-21T11:58:29.969Z,22.24
2018-01-21T11:59:29.974Z,22.20
2018-01-21T12:00:29.973Z,22.24
2018-01-21T12:01:29.992Z,22.25
2018-01-21T12:02:29.978Z,22.21
2018-01-21T12:03:29.983Z,22.21
2018-01-21T12:04:29.980Z,22.27
2018-01-21T12:05:29.985Z,22.14
2018-01-21T12:06:29.986Z,22.07
2018-01-21T12:07:29.989Z,22.20
2018-01-21T12:08:29.990Z,22.15
2018-01-21T12:09:29.997Z,22.20
2018-01-21T12:10:29.992Z,22.20
2018-01-21T12:11:29.997Z,22.22
2018-01-21T12:12:29.996Z,22.20
2018-01-21T12:13:29.999Z,22.21
2018-01-21T12:14:30.004Z,22.21
2018-01-21T12:15:30.003Z,22.17
2018-01-21T12:16:30.005Z,22.20
2018-01-21T12:17:30.022Z,22.20
2018-01-21T12:18:30.011Z,22.18
2018-01-21T12:19:30.012Z,22.21
2018-01-21T12:20:30.012Z,22.17
2018-01-21T12:21:30.015Z,22.21
2018-01-21T12:22:30.017Z,22.21
2018-01-21T12:23:30.070Z,22.25
2018-01-21T12:24:30.021Z,22.18
2018-01-21T12:25:30.024Z,22.21
2018-01-21T12:26:30.025Z,22.17
2018-01-21T12:27:30.028Z,22.20
2018-01-21T12:28:30.030Z,22.24
2018-01-21T12:29:30.030Z,22.20
2018-01-21T12:30:30.036Z,22.22
2018-01-21T12:31:30.039Z,22.28
2018-01-21T12:32:30.036Z,22.21
2018-01-21T12:33:30.038Z,22.20
2018-01-21T12:34:30.041Z,22.24
2018-01-21T12:35:30.043Z,22.27
2018-01-21T12:36:30.044Z,22.27
2018-01-21T12:37:30.048Z,22.18
2018-01-21T12:38:30.049Z,22.24
2018-01-21T12:39:30.051Z,22.20
2018-01-21T12:40:30.052Z,22.25
2018-01-21T12:41:30.054Z,22.27
2018-01-21T12:42:30.056Z,22.27
2018-01-21T12:43:30.062Z,22.24
2018-01-21T12:44:30.061Z,22.25
2018-01-21T12:45:30.062Z,22.18
2018-01-21T12:46:30.064Z,22.22
2018-01-21T12:47:30.068Z,22.22
2018-01-21T12:48:30.069Z,22.24
2018-01-21T12:49:30.070Z,22.25
2018-01-21T12:50:30.078Z,22.21
2018-01-21T12:51:30.074Z,22.21
2018-01-21T12:52:30.076Z,22.28